Welcome to Des Moines Iowa Weather. I am an independent private personal weather station on the Northwest Side of Des Moines, Iowa. Just East of Windsor Heights and just West of Glendale . This site is also mobile friendly.

There are no active watches, warnings or advisories


Visit our other weather sites:

Historical Data

Weather Station Setup



Weather Underground History page Text

Daily Summary for May 26, 2017 Units:  English    Metric   Both
« Previous Day
Next Day »
Daily Weekly Monthly Yearly Custom
  High: Low: Average:
Temperature: 81.1 °F 58.0 °F 68.3 °F
Dew Point: 64.0 °F 53.0 °F 58.9 °F
Humidity: 90 % 50 % 73 %
Wind Speed: 4.0 mph 0.0 mph 0.3 mph
Wind Gust: 9.0 mph - -
Wind:- - ESE
Pressure: 29.82 in 29.63 in -
Precipitation: 0.04 in    
Historical Graphs
 
 
Tabular Data for May 26, 2017
Time Temperature Dew Point Pressure Wind Wind Speed Wind Gust Humidity Rainfall Rate (Hourly)
00:04 62.6 °F 54.0 °F 29.66 in Calm     74 % 0.00 in
00:19 62.2 °F 54.0 °F 29.66 in Calm     74 % 0.00 in
00:34 61.5 °F 54.0 °F 29.66 in Calm     75 % 0.00 in
00:49 60.9 °F 53.0 °F 29.67 in Calm     76 % 0.00 in
01:04 60.3 °F 53.0 °F 29.68 in Calm     78 % 0.00 in
01:19 59.9 °F 53.0 °F 29.67 in Calm     79 % 0.00 in
01:34 59.6 °F 53.0 °F 29.67 in Calm     80 % 0.00 in
01:49 59.3 °F 54.0 °F 29.67 in Calm     81 % 0.00 in
02:04 59.0 °F 53.0 °F 29.66 in Calm     81 % 0.00 in
02:19 58.8 °F 53.0 °F 29.66 in Calm     82 % 0.00 in
02:34 58.6 °F 53.0 °F 29.66 in Calm     82 % 0.00 in
02:49 58.4 °F 53.0 °F 29.66 in Calm     83 % 0.00 in
03:04 58.2 °F 53.0 °F 29.66 in Calm     84 % 0.00 in
03:19 58.2 °F 53.0 °F 29.65 in Calm     84 % 0.00 in
03:34 58.1 °F 54.0 °F 29.65 in Calm     85 % 0.00 in
03:49 58.0 °F 54.0 °F 29.65 in Calm     85 % 0.00 in
04:04 58.0 °F 54.0 °F 29.66 in Calm     86 % 0.00 in
04:19 58.1 °F 54.0 °F 29.65 in Calm     86 % 0.00 in
04:35 58.4 °F 54.0 °F 29.64 in Calm     86 % 0.00 in
04:50 58.8 °F 54.0 °F 29.64 in Calm   2.0 mph 85 % 0.00 in
05:05 59.2 °F 54.0 °F 29.63 in Calm   3.0 mph 84 % 0.00 in
05:20 59.3 °F 54.0 °F 29.63 in Calm   2.0 mph 83 % 0.00 in
05:35 59.3 °F 54.0 °F 29.63 in Calm     83 % 0.00 in
05:50 59.2 °F 54.0 °F 29.63 in Calm   3.0 mph 83 % 0.00 in
06:05 59.2 °F 54.0 °F 29.63 in Calm   2.0 mph 83 % 0.00 in
06:20 59.4 °F 54.0 °F 29.64 in Calm   4.0 mph 82 % 0.00 in
06:35 59.7 °F 54.0 °F 29.65 in NNE 1.0 mph 3.0 mph 82 % 0.00 in
06:50 60.0 °F 55.0 °F 29.65 in Calm   2.0 mph 82 % 0.00 in
07:05 60.1 °F 54.0 °F 29.65 in Calm     81 % 0.00 in
07:20 60.1 °F 54.0 °F 29.66 in Calm     81 % 0.00 in
07:35 60.2 °F 55.0 °F 29.67 in Calm     82 % 0.00 in
07:50 60.2 °F 55.0 °F 29.68 in Calm     82 % 0.00 in
08:05 60.3 °F 55.0 °F 29.68 in Calm     83 % 0.00 in
08:20 60.2 °F 56.0 °F 29.69 in Calm     85 % 0.01 in
08:35 60.1 °F 56.0 °F 29.70 in Calm     86 % 0.03 in
08:50 60.0 °F 57.0 °F 29.69 in Calm     88 % 0.04 in
09:05 60.1 °F 57.0 °F 29.69 in Calm     89 % 0.04 in
09:20 60.5 °F 58.0 °F 29.69 in Calm   1.0 mph 90 % 0.03 in
09:35 60.7 °F 58.0 °F 29.69 in Calm   2.0 mph 90 % 0.01 in
09:50 61.7 °F 59.0 °F 29.69 in Calm   3.0 mph 90 % 0.00 in
10:05 62.6 °F 59.0 °F 29.69 in Calm     89 % 0.00 in
10:20 63.7 °F 60.0 °F 29.69 in NNE 1.0 mph 3.0 mph 88 % 0.00 in
10:35 64.4 °F 61.0 °F 29.70 in NNE 2.0 mph 3.0 mph 87 % 0.00 in
10:50 66.1 °F 61.0 °F 29.70 in ENE 2.0 mph 4.0 mph 84 % 0.00 in
11:05 66.9 °F 61.0 °F 29.68 in Calm   5.0 mph 81 % 0.00 in
11:20 67.7 °F 62.0 °F 29.70 in Calm   3.0 mph 83 % 0.00 in
11:35 69.1 °F 63.0 °F 29.71 in Calm   4.0 mph 80 % 0.00 in
11:51 69.9 °F 62.0 °F 29.71 in NNW 1.0 mph 4.0 mph 77 % 0.00 in
12:06 71.3 °F 63.0 °F 29.71 in NNW 2.0 mph 6.0 mph 74 % 0.00 in
12:21 72.6 °F 63.0 °F 29.71 in Calm   4.0 mph 71 % 0.00 in
12:36 73.7 °F 62.0 °F 29.72 in NE 1.0 mph 4.0 mph 68 % 0.00 in
12:51 74.5 °F 64.0 °F 29.72 in North 1.0 mph 4.0 mph 69 % 0.00 in
13:06 74.9 °F 62.0 °F 29.72 in Calm   5.0 mph 64 % 0.00 in
13:21 75.4 °F 60.0 °F 29.72 in North 3.0 mph 5.0 mph 60 % 0.00 in
13:36 75.4 °F 60.0 °F 29.72 in NNE 2.0 mph 6.0 mph 60 % 0.00 in
13:51 76.2 °F 62.0 °F 29.72 in NE 1.0 mph 5.0 mph 62 % 0.00 in
14:06 77.3 °F 63.0 °F 29.71 in Calm   4.0 mph 61 % 0.00 in
14:21 78.0 °F 61.0 °F 29.71 in NW 1.0 mph 4.0 mph 57 % 0.00 in
14:36 78.7 °F 62.0 °F 29.71 in ENE 2.0 mph 5.0 mph 57 % 0.00 in
14:51 78.4 °F 61.0 °F 29.71 in Calm   5.0 mph 55 % 0.00 in
15:06 78.6 °F 62.0 °F 29.71 in Calm   5.0 mph 57 % 0.00 in
15:21 79.8 °F 62.0 °F 29.71 in Calm   3.0 mph 54 % 0.00 in
15:36 79.9 °F 61.0 °F 29.71 in Calm   9.0 mph 53 % 0.00 in
15:51 79.6 °F 61.0 °F 29.71 in Calm   8.0 mph 53 % 0.00 in
16:06 79.8 °F 62.0 °F 29.71 in WNW 4.0 mph 6.0 mph 55 % 0.00 in
16:21 79.8 °F 61.0 °F 29.71 in Calm   4.0 mph 53 % 0.00 in
16:36 80.6 °F 64.0 °F 29.72 in Calm   6.0 mph 57 % 0.00 in
16:51 80.7 °F 62.0 °F 29.72 in Calm   4.0 mph 53 % 0.00 in
17:06 80.9 °F 62.0 °F 29.72 in Calm   3.0 mph 52 % 0.00 in
17:21 80.5 °F 62.0 °F 29.72 in Calm   4.0 mph 53 % 0.00 in
17:36 81.1 °F 61.0 °F 29.72 in Calm   5.0 mph 50 % 0.00 in
17:51 80.6 °F 61.0 °F 29.71 in Calm   2.0 mph 51 % 0.00 in
18:06 80.0 °F 61.0 °F 29.72 in Calm   2.0 mph 52 % 0.00 in
18:21 80.2 °F 62.0 °F 29.72 in Calm   1.0 mph 54 % 0.00 in
18:36 80.0 °F 61.0 °F 29.72 in Calm   3.0 mph 52 % 0.00 in
18:51 79.3 °F 61.0 °F 29.72 in Calm   2.0 mph 53 % 0.00 in
19:07 78.9 °F 61.0 °F 29.72 in Calm     54 % 0.00 in
19:21 78.5 °F 62.0 °F 29.72 in Calm     57 % 0.00 in
19:36 77.8 °F 62.0 °F 29.73 in Calm     58 % 0.00 in
19:52 77.1 °F 63.0 °F 29.73 in Calm     61 % 0.00 in
20:07 76.5 °F 62.0 °F 29.73 in Calm     62 % 0.00 in
20:22 76.0 °F 62.0 °F 29.74 in Calm     63 % 0.00 in
20:37 75.3 °F 64.0 °F 29.75 in Calm     68 % 0.00 in
20:52 74.4 °F 64.0 °F 29.75 in Calm     69 % 0.00 in
21:07 73.3 °F 63.0 °F 29.76 in Calm   1.0 mph 70 % 0.00 in
21:22 72.4 °F 64.0 °F 29.77 in NNE 2.0 mph 3.0 mph 74 % 0.00 in
21:37 71.7 °F 64.0 °F 29.77 in Calm   3.0 mph 77 % 0.00 in
21:52 71.1 °F 64.0 °F 29.78 in Calm   3.0 mph 79 % 0.00 in
22:07 70.5 °F 64.0 °F 29.79 in Calm   2.0 mph 80 % 0.00 in
22:22 69.8 °F 64.0 °F 29.79 in Calm   2.0 mph 81 % 0.00 in
22:37 69.2 °F 64.0 °F 29.80 in Calm   3.0 mph 83 % 0.00 in
22:52 68.8 °F 64.0 °F 29.81 in Calm     83 % 0.00 in
23:07 68.3 °F 63.0 °F 29.81 in Calm     83 % 0.00 in
23:22 67.7 °F 63.0 °F 29.82 in Calm     84 % 0.00 in
23:37 67.0 °F 62.0 °F 29.81 in Calm     85 % 0.00 in
23:52 66.3 °F 62.0 °F 29.81 in Calm     86 % 0.00 in
Des Moines Weather and Climate
Compliments of Weather Underground - 3 mb

Script developed by  Jim McMurry - jmcmurry@mwt.net Adapted for the template by  Wim van der Kuil - Leuven-Template.eu

You find our weather info also at:

Weather Underground

Equipment we use:

Weather-station
Davis VP2 Plus

Weather-program
Davis Weatherlink.Com

Weather-server
iMac (Retina 4K, 21.5-inch, Late 2015)

Provider
Hostmonster.com

Davis VP2 Plus

Davis Weatherlink.Com

iMac (Retina 4K, 21.5-inch, Late 2015)

Hostmonster.com